Terminal Aerodrome Forecast
Issued by NWS

Home | Current Version | Previous Version | Text Only | Print | Product List | Glossary On
Versions: 1 2 3 4 5 6 7 8 9 10 11 12 13 14 15 16 17 18 19 20 21 22 23 24 25 26 27 28 29 30 31 32 33 34 35 36 37
000
FTUS46 KLOX 031721
TAFCMA
TAF
KCMA 031721Z 0318/0418 23008KT P6SM SCT150
     FM040300 VRB03KT P6SM SCT150
     FM041100 VRB03KT 1SM BR BKN003
     FM041630 VRB03KT 5SM HZ FEW006=

USA.gov is the U.S. government's official web portal to all federal, state and local government web resources and services.